Latest Weather Observations for Geraldton Airport

IDW60801

Issued at 4:13 pm WST Friday 19 December 2014 (issued every 30 minutes, with the page automatically refreshed every 10 minutes)

About weather observations | Map of weather stations | Latest weather observations for WA | Other Formats
Station Details ID: 008315 Name: GERALDTON AIRPORT Lat: -28.80 Lon: 114.70 Height: 29.7 m
Data from the previous 72 hours. | See also: Recent months at Geraldton Airport
Date/Time
WST
Temp
°C
App
Temp
°C
Dew
Point
Rel
Hum
%
Delta-T
°C
Wind Press
QNH
hPa
Press
MSL
hPa
Rain
since 9 am
mm
Dir
 
Spd
km/h
Gust
km/h
Spd
kts
Gust
kts
19/04:00pm 27.8 25.3 16.1 49 7.2 W 24 32 13 17 1007.7 - 0.0
19/03:30pm 29.1 26.4 13.4 38 9.4 SW 20 30 11 16 1007.5 - 0.0
19/03:00pm 28.8 26.1 13.6 39 9.1 SW 20 26 11 14 1007.7 1007.7 0.0
19/02:30pm 29.1 25.5 12.0 34 10.0 SW 22 28 12 15 1007.7 - 0.0
19/02:00pm 30.2 26.4 9.7 28 11.6 SW 20 28 11 15 1007.8 - 0.0
19/01:30pm 29.5 25.5 9.1 28 11.4 WSW 20 30 11 16 1008.0 - 0.0
19/01:00pm 29.5 25.9 10.4 30 10.9 SW 20 28 11 15 1008.1 - 0.0
19/12:30pm 30.2 26.3 9.4 27 11.7 WSW 20 28 11 15 1008.1 - 0.0
19/12:00pm 29.6 25.6 9.2 28 11.4 WSW 20 28 11 15 1008.1 1008.1 0.0
19/11:30am 30.0 26.9 10.2 29 11.3 SW 17 24 9 13 1008.1 - 0.0
19/11:00am 30.1 27.1 10.6 30 11.2 SW 17 24 9 13 1008.4 - 0.0
19/10:30am 29.0 26.5 12.3 35 9.8 SW 17 24 9 13 1008.4 - 0.0
19/10:00am 28.5 26.2 13.1 38 9.1 SW 17 22 9 12 1008.4 - 0.0
19/09:30am 28.6 26.0 13.8 40 8.9 SW 20 24 11 13 1008.5 - 0.0
19/09:00am 27.5 26.8 13.3 41 8.4 S 9 15 5 8 1008.8 1008.7 0.0
19/08:30am 26.0 25.2 13.9 47 7.2 S 11 17 6 9 1009.0 - 0.0
19/08:00am 24.1 23.9 14.7 55 5.6 SSE 9 15 5 8 1009.1 - 0.0
19/07:30am 22.1 21.9 14.6 62 4.4 SSE 9 13 5 7 1009.2 - 0.0
19/07:00am 20.2 20.2 14.1 68 3.5 SE 7 9 4 5 1009.2 - 0.0
19/06:30am 18.0 18.9 12.9 72 2.9 CALM 0 6 0 3 1009.2 - 0.0
19/05:30am 15.3 15.9 12.0 81 1.8 CALM 0 0 0 0 1009.0 - 0.0
19/05:00am 15.0 14.5 11.9 82 1.7 SSE 6 7 3 4 1008.9 - 0.0
19/04:30am 15.2 14.7 11.9 81 1.8 SE 6 7 3 4 1008.6 - 0.0
19/04:00am 15.5 14.4 12.0 79 1.9 SSE 9 11 5 6 1008.5 - 0.0
19/03:30am 15.4 15.0 12.5 83 1.6 SE 6 9 3 5 1008.9 - 0.0
19/03:00am 17.0 15.7 13.8 81 1.8 SE 13 15 7 8 1008.9 1008.8 0.0
19/02:30am 19.2 17.3 15.1 77 2.4 S 19 26 10 14 1009.0 - 0.0
19/02:00am 19.2 17.2 15.0 76 2.5 S 19 26 10 14 1009.0 - 0.0
19/01:30am 19.2 17.3 15.1 77 2.4 S 19 24 10 13 1009.3 - 0.0
19/01:00am 19.5 17.8 14.8 74 2.7 S 17 24 9 13 1009.7 - 0.0
19/12:30am 19.6 17.7 15.3 76 2.5 S 19 26 10 14 1010.0 - 0.0
19/12:00am 19.9 17.1 15.4 75 2.7 S 24 30 13 16 1010.1 1010.0 0.0
 
Date/Time
WST
Temp
°C
App
Temp
°C
Dew
Point
Rel
Hum
%
Delta-T
°C
Wind Press
QNH
hPa
Press
MSL
hPa
Rain
since 9 am
mm
Dir
 
Spd
km/h
Gust
km/h
Spd
kts
Gust
kts
18/11:30pm 20.1 16.9 15.3 74 2.8 S 26 35 14 19 1010.4 - 0.0
18/11:00pm 20.2 16.8 15.9 76 2.6 S 28 37 15 20 1010.5 - 0.0
18/10:30pm 20.3 16.7 16.2 77 2.5 S 30 43 16 23 1010.7 - 0.0
18/10:00pm 20.5 16.5 16.1 76 2.6 S 32 44 17 24 1010.7 - 0.0
18/09:30pm 20.9 16.0 15.4 71 3.3 S 35 46 19 25 1010.7 - 0.0
18/09:00pm 21.5 15.4 14.0 62 4.4 S 39 57 21 31 1010.2 1010.1 0.0
18/08:30pm 21.5 15.6 13.7 61 4.5 S 37 48 20 26 1010.3 - 0.0
18/08:00pm 21.8 16.6 12.7 56 5.2 S 32 39 17 21 1010.3 - 0.0
18/07:30pm 22.1 16.6 12.0 52 5.7 SSE 32 46 17 25 1010.2 - 0.0
18/07:00pm 22.9 17.4 11.7 49 6.3 SSE 32 43 17 23 1010.1 - 0.0
18/06:30pm 24.2 17.4 10.8 43 7.5 SSE 37 46 20 25 1009.7 - 0.0
18/06:00pm 25.2 16.9 10.1 38 8.4 SSE 44 54 24 29 1009.5 1009.4 0.0
18/05:30pm 26.3 18.0 9.2 34 9.4 S 43 54 23 29 1009.0 - 0.0
18/05:00pm 27.6 19.1 9.4 32 10.1 S 44 57 24 31 1009.1 - 0.0
18/04:30pm 27.9 19.0 9.2 31 10.3 S 46 59 25 32 1009.0 - 0.0
18/04:00pm 28.4 20.2 9.8 31 10.4 S 43 57 23 31 1009.2 - 0.0
18/03:30pm 28.6 20.7 10.7 32 10.2 S 43 52 23 28 1009.4 - 0.0
18/03:00pm 29.6 22.9 11.0 31 10.7 S 37 48 20 26 1009.5 1009.4 0.0
18/02:30pm 30.4 23.0 9.8 28 11.6 S 39 50 21 27 1009.7 - 0.0
18/02:00pm 30.3 22.5 9.9 28 11.5 SSW 41 48 22 26 1010.0 - 0.0
18/01:30pm 29.7 22.7 10.1 29 11.1 SSW 37 48 20 26 1010.1 - 0.0
18/01:00pm 30.7 23.9 9.2 26 12.0 S 35 44 19 24 1010.4 - 0.0
18/12:30pm 30.8 23.5 8.8 25 12.3 SSW 37 46 20 25 1010.6 - 0.0
18/12:00pm 31.5 24.8 8.1 23 12.9 SSW 33 44 18 24 1010.8 1010.7 0.0
18/11:30am 31.6 26.0 8.7 24 12.8 SSW 28 37 15 20 1011.2 - 0.0
18/11:00am 32.1 26.3 4.3 17 14.5 SSE 24 35 13 19 1011.6 - 0.0
18/10:30am 31.4 26.0 4.7 18 13.9 SE 22 32 12 17 1011.8 - 0.0
18/10:00am 30.2 24.6 5.3 20 13.0 ESE 24 35 13 19 1012.3 - 0.0
18/09:30am 29.3 23.8 6.0 23 12.3 ESE 24 33 13 18 1012.4 - 0.0
18/09:00am 27.8 21.9 6.0 25 11.4 ESE 26 33 14 18 1012.6 1012.5 0.0
18/08:30am 24.2 20.9 9.6 39 8.0 SSE 17 24 9 13 1012.9 - 0.0
18/08:00am 21.3 18.7 10.8 51 5.8 SE 15 17 8 9 1013.2 - 0.0
18/07:30am 18.5 15.9 12.0 66 3.6 SSE 17 20 9 11 1013.1 - 0.0
18/07:00am 16.8 14.2 13.1 79 2.1 SSE 19 22 10 12 1013.1 - 0.0
18/06:30am 15.2 13.3 12.9 86 1.3 SSE 15 19 8 10 1012.8 - 0.0
18/06:00am 14.3 12.6 12.5 89 1.0 SE 13 17 7 9 1012.7 1012.6 0.0
18/05:30am 13.4 11.5 11.7 89 0.9 SE 13 17 7 9 1012.4 - 0.0
18/05:00am 13.6 11.3 11.8 89 1.0 SSE 15 17 8 9 1012.2 - 0.0
18/04:30am 14.2 12.0 12.2 88 1.1 SE 15 20 8 11 1012.0 - 0.0
18/04:00am 14.5 12.3 12.1 85 1.3 SE 15 20 8 11 1011.8 - 0.0
18/03:30am 15.0 12.1 12.3 84 1.5 SE 19 22 10 12 1011.6 - 0.0
18/03:00am 15.5 13.1 12.8 84 1.5 SE 17 22 9 12 1011.6 1011.5 0.0
18/02:30am 16.0 13.7 12.9 82 1.7 SSE 17 22 9 12 1011.6 - 0.0
18/02:00am 15.7 14.1 12.8 83 1.6 SSE 13 17 7 9 1011.8 - 0.0
18/01:30am 15.8 13.9 12.9 83 1.6 SE 15 19 8 10 1012.0 - 0.0
18/01:00am 16.7 13.9 13.1 79 2.0 SSE 20 26 11 14 1012.0 - 0.0
18/12:30am 17.7 13.8 13.3 75 2.5 SSE 26 33 14 18 1012.2 - 0.0
18/12:00am 17.8 13.4 13.0 73 2.7 SSE 28 35 15 19 1012.4 1012.3 0.0
 
Date/Time
WST
Temp
°C
App
Temp
°C
Dew
Point
Rel
Hum
%
Delta-T
°C
Wind Press
QNH
hPa
Press
MSL
hPa
Rain
since 9 am
mm
Dir
 
Spd
km/h
Gust
km/h
Spd
kts
Gust
kts
17/11:30pm 18.0 13.6 12.8 71 2.9 SSE 28 37 15 20 1012.5 - 0.0
17/11:00pm 18.5 14.5 14.2 76 2.5 S 28 35 15 19 1012.8 - 0.0
17/10:30pm 18.2 14.0 13.5 74 2.7 S 28 35 15 19 1012.8 - 0.0
17/10:00pm 18.3 13.3 13.4 73 2.8 S 32 41 17 22 1012.8 - 0.0
17/09:30pm 18.4 13.7 13.1 71 3.0 S 30 43 16 23 1012.6 - 0.0
17/09:00pm 18.4 14.0 12.9 70 3.1 S 28 43 15 23 1012.4 1012.3 0.0
17/08:30pm 18.3 14.0 13.2 72 2.9 S 28 37 15 20 1012.2 - 0.0
17/08:00pm 18.4 13.2 12.9 70 3.1 S 32 44 17 24 1012.0 - 0.0
17/07:30pm 18.6 13.2 12.7 68 3.3 S 33 43 18 23 1011.8 - 0.0
17/07:00pm 19.1 12.4 12.4 65 3.7 S 39 50 21 27 1011.4 - 0.0
17/06:30pm 19.7 13.1 12.7 64 3.9 S 39 48 21 26 1011.4 - 0.0
17/06:00pm 20.3 13.9 11.9 58 4.7 S 37 46 20 25 1011.2 1011.1 0.0
17/05:30pm 20.9 14.1 12.0 56 5.0 S 39 48 21 26 1011.1 - 0.0
17/05:00pm 21.2 14.9 12.3 57 5.0 S 37 48 20 26 1011.0 - 0.0
17/04:30pm 21.3 14.8 11.7 54 5.4 S 37 50 20 27 1010.8 - 0.0
17/04:00pm 22.5 15.5 11.4 49 6.2 S 39 52 21 28 1010.9 - 0.0
17/03:30pm 22.5 16.3 11.3 49 6.2 S 35 50 19 27 1010.9 - 0.0
17/03:00pm 23.6 18.0 11.4 46 6.9 SSW 32 44 17 24 1011.0 1010.9 0.0
17/02:30pm 24.1 18.1 10.8 43 7.4 S 33 44 18 24 1011.2 - 0.0
17/02:00pm 23.7 17.8 10.3 42 7.4 S 32 43 17 23 1011.4 - 0.0
17/01:30pm 23.0 17.1 10.3 44 7.0 S 32 43 17 23 1011.5 - 0.0
17/01:00pm 23.1 17.0 9.9 43 7.2 S 32 43 17 23 1011.6 - 0.0
17/12:30pm 22.9 17.2 9.9 43 7.1 SSW 30 44 16 24 1011.7 - 0.0
17/12:00pm 23.2 17.1 9.6 42 7.4 SSW 32 44 17 24 1012.0 1011.9 0.0
17/11:30am 22.8 17.0 9.6 43 7.1 S 30 39 16 21 1012.3 - 0.0
17/11:00am 22.5 16.7 9.6 44 7.0 S 30 43 16 23 1012.5 - 0.0
17/10:30am 22.7 16.7 10.1 44 6.9 S 32 43 17 23 1012.5 - 0.0
17/10:00am 21.8 15.3 10.2 47 6.3 S 35 48 19 26 1012.6 - 0.0
17/09:30am 21.2 15.3 10.6 50 5.8 SSE 32 41 17 22 1012.7 - 0.0
17/09:00am 21.3 15.7 10.1 48 6.1 S 30 46 16 25 1012.8 1012.7 0.0
17/08:30am 20.4 14.3 10.3 52 5.5 S 33 43 18 23 1012.8 - 0.0
17/08:00am 20.2 14.5 9.9 51 5.5 SSE 30 39 16 21 1012.7 - 0.0
17/07:30am 19.6 14.3 10.0 54 5.1 SSE 28 37 15 20 1012.6 - 0.0
17/07:00am 17.7 12.4 9.8 60 4.2 SSE 28 37 15 20 1012.4 - 0.0
17/06:30am 17.3 12.4 10.1 62 3.8 SSE 26 32 14 17 1011.9 - 0.0
17/06:00am 16.6 11.7 10.0 65 3.5 SSE 26 32 14 17 1011.7 1011.6 0.0
17/05:30am 16.4 12.9 10.1 66 3.3 SSE 19 28 10 15 1011.5 - 0.0
17/05:00am 16.3 12.6 10.2 67 3.2 SE 20 30 11 16 1011.2 - 0.0
17/04:30am 16.1 12.7 10.5 69 3.0 SE 19 24 10 13 1011.0 - 0.0
17/04:00am 16.4 12.8 10.6 68 3.1 SE 20 26 11 14 1010.9 - 0.0
17/03:30am 16.7 14.2 10.9 68 3.1 SE 15 19 8 10 1010.8 - 0.0
17/03:00am 16.7 14.6 11.1 69 3.0 SE 13 19 7 10 1010.8 1010.7 0.0
17/02:30am 16.3 14.2 11.1 71 2.8 SE 13 17 7 9 1010.8 - 0.0
17/02:00am 16.4 13.0 11.3 72 2.8 SE 20 28 11 15 1010.9 - 0.0
17/01:30am 16.8 14.4 11.5 71 2.9 SE 15 19 8 10 1010.9 - 0.0
17/01:00am 17.8 13.4 11.6 67 3.4 S 26 33 14 18 1010.9 - 0.0
17/12:30am 16.7 13.9 11.4 71 2.9 SSE 17 20 9 11 1011.2 - 0.0
17/12:00am 17.9 13.2 12.1 69 3.2 S 28 39 15 21 1011.3 1011.2 0.0
 
Date/Time
WST
Temp
°C
App
Temp
°C
Dew
Point
Rel
Hum
%
Delta-T
°C
Wind Press
QNH
hPa
Press
MSL
hPa
Rain
since 9 am
mm
Dir
 
Spd
km/h
Gust
km/h
Spd
kts
Gust
kts
16/11:30pm 18.1 13.4 12.1 68 3.3 S 28 37 15 20 1011.7 - 0.0
16/11:00pm 18.0 12.9 11.9 67 3.4 S 30 41 16 22 1011.8 - 0.0
16/10:30pm 18.2 13.3 12.5 69 3.2 S 30 39 16 21 1011.9 - 0.0
16/10:00pm 18.4 13.2 12.9 70 3.1 S 32 43 17 23 1012.0 - 0.0
16/09:30pm 18.4 13.1 12.5 68 3.3 S 32 41 17 22 1011.8 - 0.0
16/09:00pm 18.3 14.1 12.4 68 3.3 S 26 33 14 18 1011.7 1011.6 0.0
16/08:30pm 18.4 13.9 12.7 69 3.2 S 28 39 15 21 1011.6 - 0.0
16/08:00pm 18.4 15.1 12.9 70 3.1 S 22 32 12 17 1011.5 - 0.0
16/07:30pm 18.7 14.3 12.8 68 3.3 S 28 37 15 20 1011.3 - 0.0
16/07:00pm 19.2 13.8 12.7 66 3.7 S 33 44 18 24 1010.9 - 0.0
16/06:30pm 20.1 14.7 12.7 62 4.2 S 33 44 18 24 1010.7 - 0.0
16/06:00pm 20.8 14.7 11.9 56 5.0 S 35 46 19 25 1010.4 1010.3 0.0
16/05:30pm 21.2 15.0 12.8 58 4.8 S 37 48 20 26 1010.3 - 0.0
16/05:00pm 21.8 16.1 12.9 57 5.1 S 35 46 19 25 1010.2 - 0.0
16/04:30pm 22.1 15.9 12.6 55 5.4 S 37 46 20 25 1010.2 - 0.0

Other Formats:

Comma delimited format used in spreadsheet applications
http://www.bom.gov.au/fwo/IDW60801/IDW60801.94403.axf

JavaScript Object Notation format (JSON) in row-major order
http://www.bom.gov.au/fwo/IDW60801/IDW60801.94403.json